This is the latest recevied weather packets stored in our database for station/object AI5ON. If no packets are shown the sender has not sent any weather packets the latest 10 day(s).
| Time | Temp. | Humidity | Pressure | Rain* | Wind** | Luminosity | Snow |
|---|---|---|---|---|---|---|---|
| 1788020772 | 35° C | 58% | 1017.8 hPa | 0 mm | - | 783 W/m² | - |
| 1788020472 | 33.89° C | 60% | 1017.6 hPa | 0 mm | - | 773 W/m² | - |
| 1788020168 | 33.89° C | 60% | 1017.8 hPa | 0 mm | - | 753 W/m² | - |
| 1788019863 | 33.89° C | 61% | 1017.6 hPa | 0 mm | - | 743 W/m² | - |
| 1788019563 | 33.33° C | 62% | 1017.8 hPa | 0 mm | - | 730 W/m² | - |
| 1788019263 | 32.78° C | 63% | 1017.7 hPa | 0 mm | - | 712 W/m² | - |
| 1788018961 | 33.33° C | 61% | 1017.9 hPa | 0 mm | - | 696 W/m² | - |
| 1788018656 | 32.78° C | 63% | 1017.7 hPa | 0 mm | - | 687 W/m² | - |
| 1788018355 | 32.78° C | 65% | 1017.8 hPa | 0 mm | - | 669 W/m² | - |
| 1788018050 | 32.22° C | 65% | 1017.4 hPa | 0 mm | - | 658 W/m² | - |
| 1788017746 | 31.67° C | 66% | 1017.7 hPa | 0 mm | - | 643 W/m² | - |
| 1788017443 | 31.67° C | 69% | 1017.8 hPa | 0 mm | - | 626 W/m² | - |
| 1788017140 | 31.67° C | 67% | 1017.7 hPa | 0 mm | - | 613 W/m² | - |
| 1788016839 | 31.67° C | 69% | 1017.6 hPa | 0 mm | - | 598 W/m² | - |
| 1788016537 | 31.67° C | 68% | 1017.7 hPa | 0 mm | - | 577 W/m² | - |
| 1788016232 | 31.11° C | 70% | 1017.8 hPa | 0 mm | - | 558 W/m² | - |
| 1788015931 | 31.11° C | 71% | 1017.7 hPa | 0 mm | - | 544 W/m² | - |
| 1788015627 | 30.56° C | 72% | 1017.6 hPa | 0 mm | - | 524 W/m² | - |
| 1788015326 | 30.56° C | 73% | 1017.5 hPa | 0 mm | - | 506 W/m² | - |
| 1788015026 | 31.11° C | 71% | 1017.4 hPa | 0 mm | - | 495 W/m² | - |
| 1788014725 | 30.56° C | 72% | 1017.6 hPa | 0 mm | - | 476 W/m² | - |
| 1788014421 | 30.56° C | 72% | 1017.6 hPa | 0 mm | - | 457 W/m² | - |
| 1788014116 | 30.56° C | 73% | 1017.5 hPa | 0 mm | - | 426 W/m² | - |
| 1788013815 | 30° C | 76% | 1017.4 hPa | 0 mm | - | 421 W/m² | - |
| 1788013514 | 30° C | 74% | 1017.3 hPa | 0 mm | - | 402 W/m² | - |
* Rain latest hour (hover to see other rain measurements)
** Current wind speed in m/s (hover to see current wind gust speed)